RJFFRJFK

Guest
Details From RJFF - Fukuoka
To RJFK - Kagoshima
Flight Number -
Tags Generated
Created
Modified
Stats Distance 108 nm / 200 km
Max Altitude 0 ft / 0 m
Waypoints 2
Social Downloads 3
Likes 0
Share VATSIM

Download

Looking for another format? Having issues loading an existing format? Contact us
Advertisement - Login to hide

Notes

Generated

Route

RJFF RJFK

ID Type Via Altitude Latitude Longitude Leg Dist Tot Dist Heading (true) Name
O RJFF APT - 0 ft / 0 m 33.59692˚ 130.44319˚ - 0 nm - -
O RJFK APT - 0 ft / 0 m 31.81511˚ 130.71148˚ 107 nm 107 nm 173° / 173° -

Altitude Profile

Advertisement - Login to hide

RJFF

Details ICAO RJFF (FUK)
Name FUKUOKA
Region Japan
Timezone Asia/Tokyo (UTC+9.0)
Stats Elevation 32 ft / 10 m (AMSL)
Location 33.585943° 130.450686°
Runways 1
Magnetic Variation 7.448° W

METAR

RJFF 151400Z AUTO 18003KT 9999 NSC 09/03 Q1022 RMK A3019

Decode

TAF

TAF RJFF 151106Z 1512/1618 15004KT 9999 FEW025 SCT035 BKN045 BECMG 1515/1517 32008KT

Decode

Departure Runways

ID Width Length Bearing (true) Bearing (mag) Surface Threshold Offset Overrun Length
16 197 ft / 60 m 9,217 ft / 2,810 m 150.35° 157.80° Asphalt 0 ft / 0 m 719 ft / 219 m
34 197 ft / 60 m 9,217 ft / 2,810 m 330.35° 337.80° Asphalt 0 ft / 0 m 801 ft / 244 m

RJFK

Details ICAO RJFK (KOJ)
Name KAGOSHIMA
Region Japan
Timezone Asia/Tokyo (UTC+9.0)
Stats Elevation 906 ft / 276 m (AMSL)
Location 31.803400° 130.719405°
Runways 1
Magnetic Variation 6.911° W

METAR

Not found

TAF

TAF RJFK 151115Z 1512/1618 35005KT 9999 FEW030 BECMG 1600/1603 32015KT BECMG 1612/1615 33005KT

Decode

Destination Runways

ID Width Length Bearing (true) Bearing (mag) Surface Threshold Offset Overrun Length
16 150 ft / 46 m 9,861 ft / 3,006 m 150.11° 157.02° Asphalt 0 ft / 0 m 200 ft / 61 m
34 150 ft / 46 m 9,861 ft / 3,006 m 330.11° 337.02° Asphalt 0 ft / 0 m 200 ft / 61 m

Approach Navaids

Runway Type Ident Frequency Range Bearing (true) Bearing (mag) Slope Elevation
34 Localiser IKG 111.70 MHz 18 nm / 33 km 330.11° 337.02° - 906 ft / 276 m (AMSL)
34 Glidescope IKG 111.70 MHz 10 nm / 19 km 330.11° 337.02° 3.00° 906 ft / 276 m (AMSL)

Popular Alternatives